sensor_id;sensor_type;location;lat;lon;timestamp;temperature;humidity
20081;DHT22;10200;49.232;9.222;2023-12-04T00:01:14;-1.60;99.90
20081;DHT22;10200;49.232;9.222;2023-12-04T00:03:40;-1.60;99.90
20081;DHT22;10200;49.232;9.222;2023-12-04T00:06:06;-1.70;99.90
20081;DHT22;10200;49.232;9.222;2023-12-04T00:08:32;-1.70;99.90
20081;DHT22;10200;49.232;9.222;2023-12-04T00:10:59;-1.70;99.90
20081;DHT22;10200;49.232;9.222;2023-12-04T00:13:25;-1.60;99.90
20081;DHT22;10200;49.232;9.222;2023-12-04T00:15:50;-1.60;99.90
20081;DHT22;10200;49.232;9.222;2023-12-04T00:18:16;-1.50;99.90
20081;DHT22;10200;49.232;9.222;2023-12-04T00:20:42;-1.50;99.90
20081;DHT22;10200;49.232;9.222;2023-12-04T00:23:07;-1.50;99.90
20081;DHT22;10200;49.232;9.222;2023-12-04T00:25:33;-1.50;99.90
20081;DHT22;10200;49.232;9.222;2023-12-04T00:27:58;-1.60;99.90
20081;DHT22;10200;49.232;9.222;2023-12-04T00:30:24;-1.70;99.90
20081;DHT22;10200;49.232;9.222;2023-12-04T00:32:50;-1.70;99.90
20081;DHT22;10200;49.232;9.222;2023-12-04T00:35:17;-1.70;99.90
20081;DHT22;10200;49.232;9.222;2023-12-04T00:37:42;-1.80;99.90
20081;DHT22;10200;49.232;9.222;2023-12-04T00:40:08;-1.70;99.90
20081;DHT22;10200;49.232;9.222;2023-12-04T00:42:34;-1.70;99.90
20081;DHT22;10200;49.232;9.222;2023-12-04T00:45:00;-1.70;99.90
20081;DHT22;10200;49.232;9.222;2023-12-04T00:47:25;-1.70;99.90
20081;DHT22;10200;49.232;9.222;2023-12-04T00:49:51;-1.60;99.90
20081;DHT22;10200;49.232;9.222;2023-12-04T00:52:17;-1.60;99.90
20081;DHT22;10200;49.232;9.222;2023-12-04T00:54:42;-1.70;99.90
20081;DHT22;10200;49.232;9.222;2023-12-04T00:57:08;-1.70;99.90
20081;DHT22;10200;49.232;9.222;2023-12-04T00:59:34;-1.80;99.90
20081;DHT22;10200;49.232;9.222;2023-12-04T01:02:00;-1.80;99.90
20081;DHT22;10200;49.232;9.222;2023-12-04T01:04:26;-1.80;99.90
20081;DHT22;10200;49.232;9.222;2023-12-04T01:06:52;-1.90;99.90
20081;DHT22;10200;49.232;9.222;2023-12-04T01:09:18;-1.90;99.90
20081;DHT22;10200;49.232;9.222;2023-12-04T01:11:43;-1.80;99.90
20081;DHT22;10200;49.232;9.222;2023-12-04T01:14:09;-1.80;99.90
20081;DHT22;10200;49.232;9.222;2023-12-04T01:16:36;-1.80;99.90
20081;DHT22;10200;49.232;9.222;2023-12-04T01:19:01;-1.80;99.90
20081;DHT22;10200;49.232;9.222;2023-12-04T01:21:27;-1.80;99.90
20081;DHT22;10200;49.232;9.222;2023-12-04T01:23:53;-1.80;99.90
20081;DHT22;10200;49.232;9.222;2023-12-04T01:26:18;-1.80;99.90
20081;DHT22;10200;49.232;9.222;2023-12-04T01:28:45;-1.80;99.90
20081;DHT22;10200;49.232;9.222;2023-12-04T01:31:11;-1.80;99.90
20081;DHT22;10200;49.232;9.222;2023-12-04T01:33:37;-1.80;99.90
20081;DHT22;10200;49.232;9.222;2023-12-04T01:36:03;-1.90;99.90
20081;DHT22;10200;49.232;9.222;2023-12-04T01:38:28;-1.90;99.90
20081;DHT22;10200;49.232;9.222;2023-12-04T01:40:54;-2.00;99.90
20081;DHT22;10200;49.232;9.222;2023-12-04T01:43:20;-2.00;99.90
20081;DHT22;10200;49.232;9.222;2023-12-04T01:45:45;-2.00;99.90
20081;DHT22;10200;49.232;9.222;2023-12-04T01:48:13;-2.10;99.90
20081;DHT22;10200;49.232;9.222;2023-12-04T01:50:40;-2.10;99.90
20081;DHT22;10200;49.232;9.222;2023-12-04T01:53:06;-2.10;99.90
20081;DHT22;10200;49.232;9.222;2023-12-04T01:55:32;-2.10;99.90
20081;DHT22;10200;49.232;9.222;2023-12-04T01:57:58;-2.00;99.90
20081;DHT22;10200;49.232;9.222;2023-12-04T02:00:25;-2.00;99.90
20081;DHT22;10200;49.232;9.222;2023-12-04T02:02:51;-2.00;99.90
20081;DHT22;10200;49.232;9.222;2023-12-04T02:05:17;-1.90;99.90
20081;DHT22;10200;49.232;9.222;2023-12-04T02:07:43;-1.90;99.90
20081;DHT22;10200;49.232;9.222;2023-12-04T02:10:09;-1.90;99.90
20081;DHT22;10200;49.232;9.222;2023-12-04T02:12:36;-1.80;99.90
20081;DHT22;10200;49.232;9.222;2023-12-04T02:15:03;-1.80;99.90
20081;DHT22;10200;49.232;9.222;2023-12-04T02:17:29;-1.80;99.90
20081;DHT22;10200;49.232;9.222;2023-12-04T02:19:54;-1.90;99.90
20081;DHT22;10200;49.232;9.222;2023-12-04T02:22:20;-1.90;99.90
20081;DHT22;10200;49.232;9.222;2023-12-04T02:24:47;-1.80;99.90
20081;DHT22;10200;49.232;9.222;2023-12-04T02:27:20;-1.80;99.90
20081;DHT22;10200;49.232;9.222;2023-12-04T02:29:50;-1.90;99.90
20081;DHT22;10200;49.232;9.222;2023-12-04T02:32:19;-1.80;99.90
20081;DHT22;10200;49.232;9.222;2023-12-04T02:34:45;-1.80;99.90
20081;DHT22;10200;49.232;9.222;2023-12-04T02:37:15;-1.80;99.90
20081;DHT22;10200;49.232;9.222;2023-12-04T02:39:42;-1.80;99.90
20081;DHT22;10200;49.232;9.222;2023-12-04T02:42:08;-1.90;99.90
20081;DHT22;10200;49.232;9.222;2023-12-04T02:44:34;-1.80;99.90
20081;DHT22;10200;49.232;9.222;2023-12-04T02:47:00;-1.90;99.90
20081;DHT22;10200;49.232;9.222;2023-12-04T02:49:26;-1.80;99.90
20081;DHT22;10200;49.232;9.222;2023-12-04T02:51:51;-1.90;99.90
20081;DHT22;10200;49.232;9.222;2023-12-04T02:54:17;-1.90;99.90
20081;DHT22;10200;49.232;9.222;2023-12-04T02:56:43;-1.90;99.90
20081;DHT22;10200;49.232;9.222;2023-12-04T02:59:08;-1.90;99.90
20081;DHT22;10200;49.232;9.222;2023-12-04T03:01:34;-1.90;99.90
20081;DHT22;10200;49.232;9.222;2023-12-04T03:04:00;-1.90;99.90
20081;DHT22;10200;49.232;9.222;2023-12-04T03:06:25;-1.80;99.90
20081;DHT22;10200;49.232;9.222;2023-12-04T03:08:51;-1.90;99.90
20081;DHT22;10200;49.232;9.222;2023-12-04T03:11:17;-1.90;99.90
20081;DHT22;10200;49.232;9.222;2023-12-04T03:13:43;-1.80;99.90
20081;DHT22;10200;49.232;9.222;2023-12-04T03:16:18;-1.90;99.90
20081;DHT22;10200;49.232;9.222;2023-12-04T03:18:44;-1.90;99.90
20081;DHT22;10200;49.232;9.222;2023-12-04T03:21:12;-1.90;99.90
20081;DHT22;10200;49.232;9.222;2023-12-04T03:23:37;-2.00;99.90
20081;DHT22;10200;49.232;9.222;2023-12-04T03:26:03;-2.00;99.90
20081;DHT22;10200;49.232;9.222;2023-12-04T03:28:29;-2.10;99.90
20081;DHT22;10200;49.232;9.222;2023-12-04T03:30:54;-2.10;99.90
20081;DHT22;10200;49.232;9.222;2023-12-04T03:33:20;-2.10;99.90
20081;DHT22;10200;49.232;9.222;2023-12-04T03:35:46;-2.10;99.90
20081;DHT22;10200;49.232;9.222;2023-12-04T03:38:12;-2.10;99.90
20081;DHT22;10200;49.232;9.222;2023-12-04T03:40:38;-2.00;99.90
20081;DHT22;10200;49.232;9.222;2023-12-04T03:43:03;-2.00;99.90
20081;DHT22;10200;49.232;9.222;2023-12-04T03:45:29;-2.00;99.90
20081;DHT22;10200;49.232;9.222;2023-12-04T03:47:55;-1.90;99.90
20081;DHT22;10200;49.232;9.222;2023-12-04T03:50:21;-1.90;99.90
20081;DHT22;10200;49.232;9.222;2023-12-04T03:52:46;-1.90;99.90
20081;DHT22;10200;49.232;9.222;2023-12-04T03:55:12;-1.90;99.90
20081;DHT22;10200;49.232;9.222;2023-12-04T03:57:37;-2.00;99.90
20081;DHT22;10200;49.232;9.222;2023-12-04T04:00:08;-2.00;99.90
20081;DHT22;10200;49.232;9.222;2023-12-04T04:02:35;-2.00;99.90
20081;DHT22;10200;49.232;9.222;2023-12-04T04:05:02;-2.00;99.90
20081;DHT22;10200;49.232;9.222;2023-12-04T04:07:28;-2.00;99.90
20081;DHT22;10200;49.232;9.222;2023-12-04T04:09:53;-2.00;99.90
20081;DHT22;10200;49.232;9.222;2023-12-04T04:12:19;-2.00;99.90
20081;DHT22;10200;49.232;9.222;2023-12-04T04:14:45;-1.90;99.90
20081;DHT22;10200;49.232;9.222;2023-12-04T04:17:10;-1.90;99.90
20081;DHT22;10200;49.232;9.222;2023-12-04T04:19:36;-1.80;99.90
20081;DHT22;10200;49.232;9.222;2023-12-04T04:22:01;-1.80;99.90
20081;DHT22;10200;49.232;9.222;2023-12-04T04:24:32;-1.70;99.90
20081;DHT22;10200;49.232;9.222;2023-12-04T04:27:00;-1.70;99.90
20081;DHT22;10200;49.232;9.222;2023-12-04T04:29:26;-1.60;99.90
20081;DHT22;10200;49.232;9.222;2023-12-04T04:31:51;-1.60;99.90
20081;DHT22;10200;49.232;9.222;2023-12-04T04:34:17;-1.60;99.90
20081;DHT22;10200;49.232;9.222;2023-12-04T04:36:43;-1.60;99.90
20081;DHT22;10200;49.232;9.222;2023-12-04T04:39:11;-1.60;99.90
20081;DHT22;10200;49.232;9.222;2023-12-04T04:41:37;-1.60;99.90
20081;DHT22;10200;49.232;9.222;2023-12-04T04:44:03;-1.60;99.90
20081;DHT22;10200;49.232;9.222;2023-12-04T04:46:28;-1.60;99.90
20081;DHT22;10200;49.232;9.222;2023-12-04T04:48:54;-1.60;99.90
20081;DHT22;10200;49.232;9.222;2023-12-04T04:51:20;-1.60;99.90
20081;DHT22;10200;49.232;9.222;2023-12-04T04:53:45;-1.70;99.90
20081;DHT22;10200;49.232;9.222;2023-12-04T04:56:11;-1.60;99.90
20081;DHT22;10200;49.232;9.222;2023-12-04T04:58:36;-1.50;99.90
20081;DHT22;10200;49.232;9.222;2023-12-04T05:01:04;-1.50;99.90
20081;DHT22;10200;49.232;9.222;2023-12-04T05:03:31;-1.50;99.90
20081;DHT22;10200;49.232;9.222;2023-12-04T05:05:57;-1.40;99.90
20081;DHT22;10200;49.232;9.222;2023-12-04T05:08:22;-1.40;99.90
20081;DHT22;10200;49.232;9.222;2023-12-04T05:10:48;-1.40;99.90
20081;DHT22;10200;49.232;9.222;2023-12-04T05:13:15;-1.30;99.90
20081;DHT22;10200;49.232;9.222;2023-12-04T05:15:41;-1.30;99.90
20081;DHT22;10200;49.232;9.222;2023-12-04T05:18:06;-1.30;99.90
20081;DHT22;10200;49.232;9.222;2023-12-04T05:20:32;-1.30;99.90
20081;DHT22;10200;49.232;9.222;2023-12-04T05:22:57;-1.40;99.90
20081;DHT22;10200;49.232;9.222;2023-12-04T05:25:23;-1.40;99.90
20081;DHT22;10200;49.232;9.222;2023-12-04T05:27:49;-1.40;99.90
20081;DHT22;10200;49.232;9.222;2023-12-04T05:30:15;-1.40;99.90
20081;DHT22;10200;49.232;9.222;2023-12-04T05:32:41;-1.40;99.90
20081;DHT22;10200;49.232;9.222;2023-12-04T05:35:07;-1.40;99.90
20081;DHT22;10200;49.232;9.222;2023-12-04T05:37:33;-1.50;99.90
20081;DHT22;10200;49.232;9.222;2023-12-04T05:39:59;-1.50;99.90
20081;DHT22;10200;49.232;9.222;2023-12-04T05:42:24;-1.60;99.90
20081;DHT22;10200;49.232;9.222;2023-12-04T05:44:51;-1.60;99.90
20081;DHT22;10200;49.232;9.222;2023-12-04T05:47:20;-1.70;99.90
20081;DHT22;10200;49.232;9.222;2023-12-04T05:49:46;-1.70;99.90
20081;DHT22;10200;49.232;9.222;2023-12-04T05:52:12;-1.70;99.90
20081;DHT22;10200;49.232;9.222;2023-12-04T05:54:38;-1.70;99.90
20081;DHT22;10200;49.232;9.222;2023-12-04T05:57:03;-1.70;99.90
20081;DHT22;10200;49.232;9.222;2023-12-04T05:59:29;-1.70;99.90
20081;DHT22;10200;49.232;9.222;2023-12-04T06:01:55;-1.70;99.90
20081;DHT22;10200;49.232;9.222;2023-12-04T06:04:21;-1.60;99.90
20081;DHT22;10200;49.232;9.222;2023-12-04T06:06:46;-1.60;99.90
20081;DHT22;10200;49.232;9.222;2023-12-04T06:09:12;-1.60;99.90
20081;DHT22;10200;49.232;9.222;2023-12-04T06:11:41;-1.60;99.90
20081;DHT22;10200;49.232;9.222;2023-12-04T06:14:07;-1.70;99.90
20081;DHT22;10200;49.232;9.222;2023-12-04T06:16:32;-1.70;99.90
20081;DHT22;10200;49.232;9.222;2023-12-04T06:19:01;-1.60;99.90
20081;DHT22;10200;49.232;9.222;2023-12-04T06:21:28;-1.60;99.90
20081;DHT22;10200;49.232;9.222;2023-12-04T06:23:54;-1.50;99.90
20081;DHT22;10200;49.232;9.222;2023-12-04T06:26:20;-1.60;99.90
20081;DHT22;10200;49.232;9.222;2023-12-04T06:28:46;-1.50;99.90
20081;DHT22;10200;49.232;9.222;2023-12-04T06:31:12;-1.50;99.90
20081;DHT22;10200;49.232;9.222;2023-12-04T06:33:38;-1.50;99.90
20081;DHT22;10200;49.232;9.222;2023-12-04T06:36:06;-1.50;99.90
20081;DHT22;10200;49.232;9.222;2023-12-04T06:38:32;-1.50;99.90
20081;DHT22;10200;49.232;9.222;2023-12-04T06:41:01;-1.50;99.90
20081;DHT22;10200;49.232;9.222;2023-12-04T06:43:27;-1.50;99.90
20081;DHT22;10200;49.232;9.222;2023-12-04T06:45:54;-1.40;99.90
20081;DHT22;10200;49.232;9.222;2023-12-04T06:48:22;-1.40;99.90
20081;DHT22;10200;49.232;9.222;2023-12-04T06:50:48;-1.40;99.90
20081;DHT22;10200;49.232;9.222;2023-12-04T06:53:14;-1.40;99.90
20081;DHT22;10200;49.232;9.222;2023-12-04T06:55:41;-1.40;99.90
20081;DHT22;10200;49.232;9.222;2023-12-04T06:58:07;-1.50;99.90
20081;DHT22;10200;49.232;9.222;2023-12-04T07:00:32;-1.60;99.90
20081;DHT22;10200;49.232;9.222;2023-12-04T07:02:58;-1.60;99.90
20081;DHT22;10200;49.232;9.222;2023-12-04T07:05:24;-1.60;99.90
20081;DHT22;10200;49.232;9.222;2023-12-04T07:07:50;-1.60;99.90
20081;DHT22;10200;49.232;9.222;2023-12-04T07:10:16;-1.60;99.90
20081;DHT22;10200;49.232;9.222;2023-12-04T07:12:42;-1.70;99.90
20081;DHT22;10200;49.232;9.222;2023-12-04T07:15:10;-1.70;99.90
20081;DHT22;10200;49.232;9.222;2023-12-04T07:17:36;-1.70;99.90
20081;DHT22;10200;49.232;9.222;2023-12-04T07:20:02;-1.70;99.90
20081;DHT22;10200;49.232;9.222;2023-12-04T07:22:28;-1.70;99.90
20081;DHT22;10200;49.232;9.222;2023-12-04T07:24:54;-1.70;99.90
20081;DHT22;10200;49.232;9.222;2023-12-04T07:27:20;-1.60;99.90
20081;DHT22;10200;49.232;9.222;2023-12-04T07:29:46;-1.60;99.90
20081;DHT22;10200;49.232;9.222;2023-12-04T07:32:12;-1.50;99.90
20081;DHT22;10200;49.232;9.222;2023-12-04T07:34:41;-1.50;99.90
20081;DHT22;10200;49.232;9.222;2023-12-04T07:37:08;-1.50;99.90
20081;DHT22;10200;49.232;9.222;2023-12-04T07:39:34;-1.50;99.90
20081;DHT22;10200;49.232;9.222;2023-12-04T07:41:59;-1.50;99.90
20081;DHT22;10200;49.232;9.222;2023-12-04T07:44:25;-1.60;99.90
20081;DHT22;10200;49.232;9.222;2023-12-04T07:46:51;-1.60;99.90
20081;DHT22;10200;49.232;9.222;2023-12-04T07:49:16;-1.60;99.90
20081;DHT22;10200;49.232;9.222;2023-12-04T07:51:42;-1.70;99.90
20081;DHT22;10200;49.232;9.222;2023-12-04T07:54:08;-1.70;99.90
20081;DHT22;10200;49.232;9.222;2023-12-04T07:56:33;-1.70;99.90
20081;DHT22;10200;49.232;9.222;2023-12-04T07:58:59;-1.60;99.90
20081;DHT22;10200;49.232;9.222;2023-12-04T08:01:25;-1.60;99.90
20081;DHT22;10200;49.232;9.222;2023-12-04T08:03:50;-1.50;99.90
20081;DHT22;10200;49.232;9.222;2023-12-04T08:06:16;-1.50;99.90
20081;DHT22;10200;49.232;9.222;2023-12-04T08:08:44;-1.40;99.90
20081;DHT22;10200;49.232;9.222;2023-12-04T08:11:10;-1.40;99.90
20081;DHT22;10200;49.232;9.222;2023-12-04T08:13:38;-1.40;99.90
20081;DHT22;10200;49.232;9.222;2023-12-04T08:16:12;-1.30;99.90
20081;DHT22;10200;49.232;9.222;2023-12-04T08:18:41;-1.30;99.90
20081;DHT22;10200;49.232;9.222;2023-12-04T08:21:07;-1.20;99.90
20081;DHT22;10200;49.232;9.222;2023-12-04T08:23:33;-1.20;99.90
20081;DHT22;10200;49.232;9.222;2023-12-04T08:25:59;-1.20;99.90
20081;DHT22;10200;49.232;9.222;2023-12-04T08:28:25;-1.20;99.90
20081;DHT22;10200;49.232;9.222;2023-12-04T08:30:52;-1.10;99.90
20081;DHT22;10200;49.232;9.222;2023-12-04T08:33:17;-1.10;99.90
20081;DHT22;10200;49.232;9.222;2023-12-04T08:35:46;-1.20;99.90
20081;DHT22;10200;49.232;9.222;2023-12-04T08:38:13;-1.20;99.90
20081;DHT22;10200;49.232;9.222;2023-12-04T08:40:38;-1.10;99.90
20081;DHT22;10200;49.232;9.222;2023-12-04T08:43:05;-1.10;99.90
20081;DHT22;10200;49.232;9.222;2023-12-04T08:45:31;-1.10;99.90
20081;DHT22;10200;49.232;9.222;2023-12-04T08:47:56;-1.10;99.90
20081;DHT22;10200;49.232;9.222;2023-12-04T08:50:22;-1.00;99.90
20081;DHT22;10200;49.232;9.222;2023-12-04T08:52:48;-1.00;99.90
20081;DHT22;10200;49.232;9.222;2023-12-04T08:55:13;-0.90;99.90
20081;DHT22;10200;49.232;9.222;2023-12-04T08:57:39;-0.80;99.90
20081;DHT22;10200;49.232;9.222;2023-12-04T09:00:05;-0.80;99.90
20081;DHT22;10200;49.232;9.222;2023-12-04T09:02:31;-0.70;99.90
20081;DHT22;10200;49.232;9.222;2023-12-04T09:04:56;-0.60;99.90
20081;DHT22;10200;49.232;9.222;2023-12-04T09:07:22;-0.50;99.90
20081;DHT22;10200;49.232;9.222;2023-12-04T09:09:50;-0.50;99.90
20081;DHT22;10200;49.232;9.222;2023-12-04T09:12:16;-0.40;99.90
20081;DHT22;10200;49.232;9.222;2023-12-04T09:14:49;-0.30;99.90
20081;DHT22;10200;49.232;9.222;2023-12-04T09:17:15;-0.40;99.90
20081;DHT22;10200;49.232;9.222;2023-12-04T09:19:41;-0.40;99.90
20081;DHT22;10200;49.232;9.222;2023-12-04T09:22:07;-0.30;99.90
20081;DHT22;10200;49.232;9.222;2023-12-04T09:24:34;-0.30;99.90
20081;DHT22;10200;49.232;9.222;2023-12-04T09:26:59;-0.30;99.90
20081;DHT22;10200;49.232;9.222;2023-12-04T09:29:25;-0.30;99.90
20081;DHT22;10200;49.232;9.222;2023-12-04T09:31:51;-0.30;99.90
20081;DHT22;10200;49.232;9.222;2023-12-04T09:34:17;-0.30;99.60
20081;DHT22;10200;49.232;9.222;2023-12-04T09:36:44;-0.30;99.50
20081;DHT22;10200;49.232;9.222;2023-12-04T09:39:09;-0.40;99.40
20081;DHT22;10200;49.232;9.222;2023-12-04T09:41:37;-0.40;99.00
20081;DHT22;10200;49.232;9.222;2023-12-04T09:44:03;-0.40;98.90
20081;DHT22;10200;49.232;9.222;2023-12-04T09:46:29;-0.40;98.90
20081;DHT22;10200;49.232;9.222;2023-12-04T09:48:57;-0.40;99.30
20081;DHT22;10200;49.232;9.222;2023-12-04T09:51:23;-0.30;99.90
20081;DHT22;10200;49.232;9.222;2023-12-04T09:53:52;-0.20;99.90
20081;DHT22;10200;49.232;9.222;2023-12-04T09:56:18;-0.20;99.60
20081;DHT22;10200;49.232;9.222;2023-12-04T09:58:45;-0.30;98.60
20081;DHT22;10200;49.232;9.222;2023-12-04T10:01:15;-0.30;98.60
20081;DHT22;10200;49.232;9.222;2023-12-04T10:03:41;-0.30;98.30
20081;DHT22;10200;49.232;9.222;2023-12-04T10:06:08;-0.30;98.00
20081;DHT22;10200;49.232;9.222;2023-12-04T10:08:35;-0.40;98.10
20081;DHT22;10200;49.232;9.222;2023-12-04T10:11:00;-0.40;98.30
20081;DHT22;10200;49.232;9.222;2023-12-04T10:13:27;-0.40;98.30
20081;DHT22;10200;49.232;9.222;2023-12-04T10:15:53;-0.40;98.30
20081;DHT22;10200;49.232;9.222;2023-12-04T10:18:29;-0.30;98.10
20081;DHT22;10200;49.232;9.222;2023-12-04T10:20:56;-0.30;98.10
20081;DHT22;10200;49.232;9.222;2023-12-04T10:23:35;-0.30;97.90
20081;DHT22;10200;49.232;9.222;2023-12-04T10:26:02;-0.30;97.50
20081;DHT22;10200;49.232;9.222;2023-12-04T10:28:28;-0.30;97.30
20081;DHT22;10200;49.232;9.222;2023-12-04T10:30:55;-0.30;97.30
20081;DHT22;10200;49.232;9.222;2023-12-04T10:33:21;-0.30;97.50
20081;DHT22;10200;49.232;9.222;2023-12-04T10:35:51;-0.30;97.10
20081;DHT22;10200;49.232;9.222;2023-12-04T10:38:18;-0.20;97.30
20081;DHT22;10200;49.232;9.222;2023-12-04T10:40:44;-0.20;97.30
20081;DHT22;10200;49.232;9.222;2023-12-04T10:43:20;-0.10;97.20
20081;DHT22;10200;49.232;9.222;2023-12-04T10:45:48;-0.10;97.50
20081;DHT22;10200;49.232;9.222;2023-12-04T10:48:16;0.00;97.20
20081;DHT22;10200;49.232;9.222;2023-12-04T10:50:51;0.10;97.00
20081;DHT22;10200;49.232;9.222;2023-12-04T10:53:20;0.10;97.00
20081;DHT22;10200;49.232;9.222;2023-12-04T10:55:50;0.10;96.10
20081;DHT22;10200;49.232;9.222;2023-12-04T10:58:17;0.00;96.50
20081;DHT22;10200;49.232;9.222;2023-12-04T11:00:47;0.10;97.00
20081;DHT22;10200;49.232;9.222;2023-12-04T11:03:20;0.20;96.80
20081;DHT22;10200;49.232;9.222;2023-12-04T11:05:51;0.20;96.50
20081;DHT22;10200;49.232;9.222;2023-12-04T11:08:19;0.20;96.30
20081;DHT22;10200;49.232;9.222;2023-12-04T11:11:08;0.20;96.40
20081;DHT22;10200;49.232;9.222;2023-12-04T11:13:40;0.20;96.20
20081;DHT22;10200;49.232;9.222;2023-12-04T11:16:18;0.20;96.20
20081;DHT22;10200;49.232;9.222;2023-12-04T11:18:53;0.20;95.80
20081;DHT22;10200;49.232;9.222;2023-12-04T11:21:20;0.20;96.10
20081;DHT22;10200;49.232;9.222;2023-12-04T11:23:47;0.30;96.30
20081;DHT22;10200;49.232;9.222;2023-12-04T11:26:14;0.30;96.00
20081;DHT22;10200;49.232;9.222;2023-12-04T11:28:42;0.30;96.10
20081;DHT22;10200;49.232;9.222;2023-12-04T11:31:10;0.40;96.40
20081;DHT22;10200;49.232;9.222;2023-12-04T11:33:38;0.30;96.30
20081;DHT22;10200;49.232;9.222;2023-12-04T11:36:12;0.40;96.50
20081;DHT22;10200;49.232;9.222;2023-12-04T11:38:43;0.40;96.60
20081;DHT22;10200;49.232;9.222;2023-12-04T11:41:23;0.40;96.90
20081;DHT22;10200;49.232;9.222;2023-12-04T11:43:50;0.40;96.90
20081;DHT22;10200;49.232;9.222;2023-12-04T11:46:24;0.40;97.30
20081;DHT22;10200;49.232;9.222;2023-12-04T11:49:40;0.40;97.20
20081;DHT22;10200;49.232;9.222;2023-12-04T11:54:09;0.30;97.70
20081;DHT22;10200;49.232;9.222;2023-12-04T11:56:35;0.30;98.10
20081;DHT22;10200;49.232;9.222;2023-12-04T11:59:08;0.30;98.70
20081;DHT22;10200;49.232;9.222;2023-12-04T12:01:38;0.30;98.60
20081;DHT22;10200;49.232;9.222;2023-12-04T12:04:08;0.30;99.20
20081;DHT22;10200;49.232;9.222;2023-12-04T12:06:36;0.30;99.80
20081;DHT22;10200;49.232;9.222;2023-12-04T12:09:01;0.40;99.90
20081;DHT22;10200;49.232;9.222;2023-12-04T12:11:28;0.40;99.90
20081;DHT22;10200;49.232;9.222;2023-12-04T12:13:54;0.50;99.90
20081;DHT22;10200;49.232;9.222;2023-12-04T12:16:21;0.50;99.90
20081;DHT22;10200;49.232;9.222;2023-12-04T12:18:49;0.60;99.90
20081;DHT22;10200;49.232;9.222;2023-12-04T12:21:15;0.50;99.90
20081;DHT22;10200;49.232;9.222;2023-12-04T12:23:40;0.50;99.90
20081;DHT22;10200;49.232;9.222;2023-12-04T12:26:06;0.50;99.90
20081;DHT22;10200;49.232;9.222;2023-12-04T12:28:35;0.40;99.90
20081;DHT22;10200;49.232;9.222;2023-12-04T12:31:04;0.30;99.90
20081;DHT22;10200;49.232;9.222;2023-12-04T12:33:30;0.30;99.90
20081;DHT22;10200;49.232;9.222;2023-12-04T12:35:58;0.20;99.90
20081;DHT22;10200;49.232;9.222;2023-12-04T12:38:25;0.20;99.90
20081;DHT22;10200;49.232;9.222;2023-12-04T12:40:50;0.20;99.90
20081;DHT22;10200;49.232;9.222;2023-12-04T12:43:16;0.20;99.90
20081;DHT22;10200;49.232;9.222;2023-12-04T12:45:47;0.20;99.90
20081;DHT22;10200;49.232;9.222;2023-12-04T12:48:16;0.10;99.90
20081;DHT22;10200;49.232;9.222;2023-12-04T12:50:43;0.10;99.90
20081;DHT22;10200;49.232;9.222;2023-12-04T12:53:11;0.10;99.90
20081;DHT22;10200;49.232;9.222;2023-12-04T12:55:41;0.00;99.90
20081;DHT22;10200;49.232;9.222;2023-12-04T12:58:09;0.10;99.90
20081;DHT22;10200;49.232;9.222;2023-12-04T13:00:35;0.10;99.90
20081;DHT22;10200;49.232;9.222;2023-12-04T13:03:01;0.10;99.90
20081;DHT22;10200;49.232;9.222;2023-12-04T13:05:27;0.10;99.90
20081;DHT22;10200;49.232;9.222;2023-12-04T13:07:53;0.10;99.90
20081;DHT22;10200;49.232;9.222;2023-12-04T13:10:20;0.10;99.90
20081;DHT22;10200;49.232;9.222;2023-12-04T13:12:46;0.20;99.90
20081;DHT22;10200;49.232;9.222;2023-12-04T13:15:12;0.20;99.90
20081;DHT22;10200;49.232;9.222;2023-12-04T13:17:38;0.20;99.90
20081;DHT22;10200;49.232;9.222;2023-12-04T13:20:05;0.20;99.90
20081;DHT22;10200;49.232;9.222;2023-12-04T13:22:34;0.20;99.90
20081;DHT22;10200;49.232;9.222;2023-12-04T13:25:00;0.30;99.90
20081;DHT22;10200;49.232;9.222;2023-12-04T13:27:27;0.30;99.90
20081;DHT22;10200;49.232;9.222;2023-12-04T13:29:54;0.30;99.90
20081;DHT22;10200;49.232;9.222;2023-12-04T13:32:19;0.30;99.90
20081;DHT22;10200;49.232;9.222;2023-12-04T13:34:45;0.30;99.90
20081;DHT22;10200;49.232;9.222;2023-12-04T13:37:12;0.40;99.90
20081;DHT22;10200;49.232;9.222;2023-12-04T13:39:37;0.40;99.90
20081;DHT22;10200;49.232;9.222;2023-12-04T13:42:24;0.50;99.90
20081;DHT22;10200;49.232;9.222;2023-12-04T13:45:08;0.50;99.90
20081;DHT22;10200;49.232;9.222;2023-12-04T13:47:35;0.50;99.90
20081;DHT22;10200;49.232;9.222;2023-12-04T13:50:01;0.50;99.90
20081;DHT22;10200;49.232;9.222;2023-12-04T13:52:27;0.60;99.90
20081;DHT22;10200;49.232;9.222;2023-12-04T13:54:58;0.60;99.90
20081;DHT22;10200;49.232;9.222;2023-12-04T13:57:24;0.60;99.90
20081;DHT22;10200;49.232;9.222;2023-12-04T13:59:57;0.70;99.90
20081;DHT22;10200;49.232;9.222;2023-12-04T14:02:23;0.70;99.90
20081;DHT22;10200;49.232;9.222;2023-12-04T14:04:49;0.70;99.90
20081;DHT22;10200;49.232;9.222;2023-12-04T14:07:14;0.70;99.90
20081;DHT22;10200;49.232;9.222;2023-12-04T14:09:41;0.80;99.90
20081;DHT22;10200;49.232;9.222;2023-12-04T14:12:07;0.80;99.90
20081;DHT22;10200;49.232;9.222;2023-12-04T14:14:33;0.70;99.90
20081;DHT22;10200;49.232;9.222;2023-12-04T14:17:00;0.80;99.90
20081;DHT22;10200;49.232;9.222;2023-12-04T14:19:29;0.80;99.90
20081;DHT22;10200;49.232;9.222;2023-12-04T14:21:54;0.80;99.90
20081;DHT22;10200;49.232;9.222;2023-12-04T14:24:20;0.90;99.90
20081;DHT22;10200;49.232;9.222;2023-12-04T14:26:50;0.80;99.90
20081;DHT22;10200;49.232;9.222;2023-12-04T14:29:16;0.90;99.90
20081;DHT22;10200;49.232;9.222;2023-12-04T14:31:42;0.90;99.90
20081;DHT22;10200;49.232;9.222;2023-12-04T14:34:07;0.90;99.90
20081;DHT22;10200;49.232;9.222;2023-12-04T14:36:33;0.90;99.90
20081;DHT22;10200;49.232;9.222;2023-12-04T14:38:59;0.90;99.90
20081;DHT22;10200;49.232;9.222;2023-12-04T14:41:25;0.90;99.90
20081;DHT22;10200;49.232;9.222;2023-12-04T14:43:51;1.00;99.90
20081;DHT22;10200;49.232;9.222;2023-12-04T14:46:17;1.00;99.90
20081;DHT22;10200;49.232;9.222;2023-12-04T14:48:42;1.00;99.90
20081;DHT22;10200;49.232;9.222;2023-12-04T14:51:09;0.90;99.90
20081;DHT22;10200;49.232;9.222;2023-12-04T14:53:40;1.00;99.90
20081;DHT22;10200;49.232;9.222;2023-12-04T14:56:10;1.00;99.90
20081;DHT22;10200;49.232;9.222;2023-12-04T14:58:55;1.00;99.90
20081;DHT22;10200;49.232;9.222;2023-12-04T15:01:41;1.00;99.90
20081;DHT22;10200;49.232;9.222;2023-12-04T15:04:12;1.00;99.90
20081;DHT22;10200;49.232;9.222;2023-12-04T15:06:38;1.00;99.90
20081;DHT22;10200;49.232;9.222;2023-12-04T15:09:35;1.00;99.90
20081;DHT22;10200;49.232;9.222;2023-12-04T15:12:01;1.00;99.90
20081;DHT22;10200;49.232;9.222;2023-12-04T15:14:42;1.00;99.90
20081;DHT22;10200;49.232;9.222;2023-12-04T15:17:10;1.00;99.90
20081;DHT22;10200;49.232;9.222;2023-12-04T15:19:58;1.00;99.90
20081;DHT22;10200;49.232;9.222;2023-12-04T15:22:47;1.10;99.90
20081;DHT22;10200;49.232;9.222;2023-12-04T15:25:13;1.10;99.90
20081;DHT22;10200;49.232;9.222;2023-12-04T15:27:40;1.10;99.90
20081;DHT22;10200;49.232;9.222;2023-12-04T15:30:06;1.20;99.90
20081;DHT22;10200;49.232;9.222;2023-12-04T15:32:34;1.20;99.90
20081;DHT22;10200;49.232;9.222;2023-12-04T15:35:00;1.20;99.90
20081;DHT22;10200;49.232;9.222;2023-12-04T15:37:27;1.20;99.90